King George, Virginia
Current Conditions -  °F | °C
As of 1:55 PM on Friday 31 Oct 2014 (Local Time) from KEZF Reporting Station
Overcast Overcast  
Wind Chill: 14°   Ceiling: 5000
Heat Index: 14°   Visibility: 10mi
Dew Point:   Wind: 5mph
Humidity: 46%   Direction: 20°NNE
Pressure: 29.89"   Gusts: NA
Location:  38.27°N, 77.18°W
Report Text: KEZF 311755Z AUTO 02004KT 10SM OVC050 14/02 A2989 RMK AO2 T01360021 10143 20033
Loading
Personal Weather Stations






























Interactive Weather Map
Tropical Storm Tracking
New forecast layout! Learn more

10-Day Weather Forecast

Advertisements
Track Severe Weather on mobile